sensor_id;sensor_type;location;lat;lon;timestamp;P1;durP1;ratioP1;P2;durP2;ratioP2
10653;SDS011;5375;51.250;6.776;2023-03-05T00:01:13;2.13;;;1.08;;
10653;SDS011;5375;51.250;6.776;2023-03-05T00:03:42;1.90;;;1.00;;
10653;SDS011;5375;51.250;6.776;2023-03-05T00:06:08;1.92;;;0.70;;
10653;SDS011;5375;51.250;6.776;2023-03-05T00:08:34;2.50;;;0.98;;
10653;SDS011;5375;51.250;6.776;2023-03-05T00:11:01;2.83;;;1.10;;
10653;SDS011;5375;51.250;6.776;2023-03-05T00:13:32;2.08;;;0.82;;
10653;SDS011;5375;51.250;6.776;2023-03-05T00:16:00;2.72;;;1.10;;
10653;SDS011;5375;51.250;6.776;2023-03-05T00:18:31;3.97;;;1.25;;
10653;SDS011;5375;51.250;6.776;2023-03-05T00:20:57;3.75;;;1.17;;
10653;SDS011;5375;51.250;6.776;2023-03-05T00:23:23;1.80;;;0.90;;
10653;SDS011;5375;51.250;6.776;2023-03-05T00:25:49;2.85;;;1.10;;
10653;SDS011;5375;51.250;6.776;2023-03-05T00:28:14;1.70;;;0.75;;
10653;SDS011;5375;51.250;6.776;2023-03-05T00:30:40;3.40;;;0.82;;
10653;SDS011;5375;51.250;6.776;2023-03-05T00:33:06;1.63;;;1.00;;
10653;SDS011;5375;51.250;6.776;2023-03-05T00:35:39;3.08;;;1.02;;
10653;SDS011;5375;51.250;6.776;2023-03-05T00:38:06;3.38;;;1.00;;
10653;SDS011;5375;51.250;6.776;2023-03-05T00:40:34;2.30;;;1.10;;
10653;SDS011;5375;51.250;6.776;2023-03-05T00:43:03;2.65;;;1.00;;
10653;SDS011;5375;51.250;6.776;2023-03-05T00:45:29;1.98;;;0.95;;
10653;SDS011;5375;51.250;6.776;2023-03-05T00:47:55;2.47;;;1.20;;
10653;SDS011;5375;51.250;6.776;2023-03-05T00:50:20;1.95;;;1.00;;
10653;SDS011;5375;51.250;6.776;2023-03-05T00:52:46;2.85;;;0.90;;
10653;SDS011;5375;51.250;6.776;2023-03-05T00:55:12;4.50;;;1.10;;
10653;SDS011;5375;51.250;6.776;2023-03-05T00:57:37;2.65;;;1.13;;
10653;SDS011;5375;51.250;6.776;2023-03-05T01:00:03;3.22;;;1.20;;
10653;SDS011;5375;51.250;6.776;2023-03-05T01:02:30;2.55;;;1.00;;
10653;SDS011;5375;51.250;6.776;2023-03-05T01:04:55;2.83;;;1.00;;
10653;SDS011;5375;51.250;6.776;2023-03-05T01:07:21;1.20;;;0.90;;
10653;SDS011;5375;51.250;6.776;2023-03-05T01:09:47;2.33;;;1.00;;
10653;SDS011;5375;51.250;6.776;2023-03-05T01:12:12;2.30;;;0.93;;
10653;SDS011;5375;51.250;6.776;2023-03-05T01:14:38;2.25;;;1.00;;
10653;SDS011;5375;51.250;6.776;2023-03-05T01:17:04;2.65;;;1.05;;
10653;SDS011;5375;51.250;6.776;2023-03-05T01:19:30;2.15;;;0.95;;
10653;SDS011;5375;51.250;6.776;2023-03-05T01:21:55;3.10;;;1.00;;
10653;SDS011;5375;51.250;6.776;2023-03-05T01:24:21;1.60;;;0.90;;
10653;SDS011;5375;51.250;6.776;2023-03-05T01:26:47;2.03;;;1.02;;
10653;SDS011;5375;51.250;6.776;2023-03-05T01:29:13;2.42;;;1.02;;
10653;SDS011;5375;51.250;6.776;2023-03-05T01:31:39;2.70;;;0.95;;
10653;SDS011;5375;51.250;6.776;2023-03-05T01:34:05;3.50;;;1.13;;
10653;SDS011;5375;51.250;6.776;2023-03-05T01:36:31;2.47;;;1.10;;
10653;SDS011;5375;51.250;6.776;2023-03-05T01:38:57;1.83;;;0.88;;
10653;SDS011;5375;51.250;6.776;2023-03-05T01:41:23;2.85;;;1.13;;
10653;SDS011;5375;51.250;6.776;2023-03-05T01:43:50;1.77;;;0.93;;
10653;SDS011;5375;51.250;6.776;2023-03-05T01:51:45;1.50;;;0.85;;
10653;SDS011;5375;51.250;6.776;2023-03-05T01:54:20;2.65;;;1.00;;
10653;SDS011;5375;51.250;6.776;2023-03-05T01:56:49;1.98;;;0.95;;
10653;SDS011;5375;51.250;6.776;2023-03-05T01:59:17;2.40;;;1.10;;
10653;SDS011;5375;51.250;6.776;2023-03-05T02:01:45;2.40;;;0.80;;
10653;SDS011;5375;51.250;6.776;2023-03-05T02:04:15;5.10;;;1.20;;
10653;SDS011;5375;51.250;6.776;2023-03-05T02:06:43;2.03;;;1.08;;
10653;SDS011;5375;51.250;6.776;2023-03-05T02:09:09;2.35;;;1.13;;
10653;SDS011;5375;51.250;6.776;2023-03-05T02:11:35;2.83;;;1.02;;
10653;SDS011;5375;51.250;6.776;2023-03-05T02:14:02;2.50;;;0.98;;
10653;SDS011;5375;51.250;6.776;2023-03-05T02:16:29;1.73;;;0.80;;
10653;SDS011;5375;51.250;6.776;2023-03-05T02:19:02;2.42;;;1.38;;
10653;SDS011;5375;51.250;6.776;2023-03-05T02:22:02;1.50;;;0.82;;
10653;SDS011;5375;51.250;6.776;2023-03-05T02:24:32;2.38;;;1.00;;
10653;SDS011;5375;51.250;6.776;2023-03-05T02:27:00;2.08;;;1.00;;
10653;SDS011;5375;51.250;6.776;2023-03-05T02:29:26;1.98;;;1.10;;
10653;SDS011;5375;51.250;6.776;2023-03-05T02:31:54;3.00;;;1.10;;
10653;SDS011;5375;51.250;6.776;2023-03-05T02:34:21;2.22;;;1.25;;
10653;SDS011;5375;51.250;6.776;2023-03-05T02:36:47;2.28;;;1.00;;
10653;SDS011;5375;51.250;6.776;2023-03-05T02:39:17;1.58;;;1.10;;
10653;SDS011;5375;51.250;6.776;2023-03-05T02:41:42;2.00;;;1.08;;
10653;SDS011;5375;51.250;6.776;2023-03-05T02:44:08;2.17;;;1.10;;
10653;SDS011;5375;51.250;6.776;2023-03-05T02:46:34;1.63;;;1.13;;
10653;SDS011;5375;51.250;6.776;2023-03-05T02:48:59;2.40;;;1.10;;
10653;SDS011;5375;51.250;6.776;2023-03-05T02:51:25;2.80;;;1.10;;
10653;SDS011;5375;51.250;6.776;2023-03-05T02:53:51;2.40;;;1.30;;
10653;SDS011;5375;51.250;6.776;2023-03-05T02:56:17;3.05;;;1.17;;
10653;SDS011;5375;51.250;6.776;2023-03-05T02:58:43;2.30;;;1.17;;
10653;SDS011;5375;51.250;6.776;2023-03-05T03:01:08;1.75;;;0.90;;
10653;SDS011;5375;51.250;6.776;2023-03-05T03:03:34;3.35;;;1.00;;
10653;SDS011;5375;51.250;6.776;2023-03-05T03:06:01;3.10;;;1.00;;
10653;SDS011;5375;51.250;6.776;2023-03-05T03:08:27;2.28;;;0.90;;
10653;SDS011;5375;51.250;6.776;2023-03-05T03:10:53;1.77;;;0.93;;
10653;SDS011;5375;51.250;6.776;2023-03-05T03:13:20;2.95;;;1.00;;
10653;SDS011;5375;51.250;6.776;2023-03-05T03:15:49;2.63;;;1.20;;
10653;SDS011;5375;51.250;6.776;2023-03-05T03:18:15;1.80;;;1.05;;
10653;SDS011;5375;51.250;6.776;2023-03-05T03:20:41;3.60;;;1.48;;
10653;SDS011;5375;51.250;6.776;2023-03-05T03:23:06;2.05;;;0.88;;
10653;SDS011;5375;51.250;6.776;2023-03-05T03:25:32;2.28;;;1.05;;
10653;SDS011;5375;51.250;6.776;2023-03-05T03:27:58;2.28;;;0.90;;
10653;SDS011;5375;51.250;6.776;2023-03-05T03:30:24;1.95;;;0.95;;
10653;SDS011;5375;51.250;6.776;2023-03-05T03:32:50;1.50;;;0.90;;
10653;SDS011;5375;51.250;6.776;2023-03-05T03:35:16;2.35;;;0.95;;
10653;SDS011;5375;51.250;6.776;2023-03-05T03:37:42;3.08;;;1.10;;
10653;SDS011;5375;51.250;6.776;2023-03-05T03:40:08;2.17;;;1.10;;
10653;SDS011;5375;51.250;6.776;2023-03-05T03:42:35;2.10;;;1.10;;
10653;SDS011;5375;51.250;6.776;2023-03-05T03:45:01;3.30;;;1.20;;
10653;SDS011;5375;51.250;6.776;2023-03-05T03:47:27;1.92;;;1.15;;
10653;SDS011;5375;51.250;6.776;2023-03-05T03:49:53;2.22;;;1.00;;
10653;SDS011;5375;51.250;6.776;2023-03-05T03:52:19;2.67;;;1.20;;
10653;SDS011;5375;51.250;6.776;2023-03-05T03:54:46;1.65;;;1.10;;
10653;SDS011;5375;51.250;6.776;2023-03-05T03:57:13;3.03;;;1.05;;
10653;SDS011;5375;51.250;6.776;2023-03-05T03:59:39;3.60;;;1.35;;
10653;SDS011;5375;51.250;6.776;2023-03-05T04:02:04;2.47;;;1.00;;
10653;SDS011;5375;51.250;6.776;2023-03-05T04:04:30;1.52;;;1.00;;
10653;SDS011;5375;51.250;6.776;2023-03-05T04:06:56;2.13;;;1.10;;
10653;SDS011;5375;51.250;6.776;2023-03-05T04:09:21;2.25;;;1.00;;
10653;SDS011;5375;51.250;6.776;2023-03-05T04:11:47;2.10;;;1.08;;
10653;SDS011;5375;51.250;6.776;2023-03-05T04:14:13;3.55;;;1.10;;
10653;SDS011;5375;51.250;6.776;2023-03-05T04:16:38;2.38;;;0.77;;
10653;SDS011;5375;51.250;6.776;2023-03-05T04:19:04;2.70;;;1.00;;
10653;SDS011;5375;51.250;6.776;2023-03-05T04:21:30;1.88;;;1.10;;
10653;SDS011;5375;51.250;6.776;2023-03-05T04:23:55;1.83;;;0.95;;
10653;SDS011;5375;51.250;6.776;2023-03-05T04:26:21;2.83;;;0.90;;
10653;SDS011;5375;51.250;6.776;2023-03-05T04:28:47;2.25;;;1.05;;
10653;SDS011;5375;51.250;6.776;2023-03-05T04:31:13;2.03;;;1.15;;
10653;SDS011;5375;51.250;6.776;2023-03-05T04:33:39;2.83;;;1.08;;
10653;SDS011;5375;51.250;6.776;2023-03-05T04:36:04;1.52;;;0.93;;
10653;SDS011;5375;51.250;6.776;2023-03-05T04:38:31;1.75;;;0.90;;
10653;SDS011;5375;51.250;6.776;2023-03-05T04:40:56;21.48;;;1.50;;
10653;SDS011;5375;51.250;6.776;2023-03-05T04:43:22;2.90;;;1.17;;
10653;SDS011;5375;51.250;6.776;2023-03-05T04:45:48;1.92;;;1.00;;
10653;SDS011;5375;51.250;6.776;2023-03-05T04:48:13;2.15;;;1.10;;
10653;SDS011;5375;51.250;6.776;2023-03-05T04:50:40;2.13;;;1.00;;
10653;SDS011;5375;51.250;6.776;2023-03-05T04:53:06;2.47;;;1.10;;
10653;SDS011;5375;51.250;6.776;2023-03-05T04:55:32;3.47;;;1.00;;
10653;SDS011;5375;51.250;6.776;2023-03-05T04:57:58;2.55;;;1.23;;
10653;SDS011;5375;51.250;6.776;2023-03-05T05:00:23;3.25;;;1.17;;
10653;SDS011;5375;51.250;6.776;2023-03-05T05:02:50;3.35;;;1.00;;
10653;SDS011;5375;51.250;6.776;2023-03-05T05:05:18;1.83;;;0.82;;
10653;SDS011;5375;51.250;6.776;2023-03-05T05:07:45;1.88;;;0.90;;
10653;SDS011;5375;51.250;6.776;2023-03-05T05:10:11;2.77;;;1.17;;
10653;SDS011;5375;51.250;6.776;2023-03-05T05:12:38;2.17;;;0.93;;
10653;SDS011;5375;51.250;6.776;2023-03-05T05:15:04;2.38;;;0.90;;
10653;SDS011;5375;51.250;6.776;2023-03-05T05:17:31;1.67;;;0.85;;
10653;SDS011;5375;51.250;6.776;2023-03-05T05:19:58;2.50;;;1.00;;
10653;SDS011;5375;51.250;6.776;2023-03-05T05:22:24;2.20;;;1.00;;
10653;SDS011;5375;51.250;6.776;2023-03-05T05:24:51;2.55;;;1.17;;
10653;SDS011;5375;51.250;6.776;2023-03-05T05:27:17;2.03;;;1.00;;
10653;SDS011;5375;51.250;6.776;2023-03-05T05:29:43;2.92;;;1.10;;
10653;SDS011;5375;51.250;6.776;2023-03-05T05:32:10;2.50;;;1.08;;
10653;SDS011;5375;51.250;6.776;2023-03-05T05:34:36;1.83;;;1.10;;
10653;SDS011;5375;51.250;6.776;2023-03-05T05:37:02;2.05;;;1.00;;
10653;SDS011;5375;51.250;6.776;2023-03-05T05:39:27;1.98;;;1.20;;
10653;SDS011;5375;51.250;6.776;2023-03-05T05:41:53;2.45;;;0.88;;
10653;SDS011;5375;51.250;6.776;2023-03-05T05:44:19;3.25;;;1.25;;
10653;SDS011;5375;51.250;6.776;2023-03-05T05:46:44;2.47;;;1.13;;
10653;SDS011;5375;51.250;6.776;2023-03-05T05:49:10;1.80;;;1.00;;
10653;SDS011;5375;51.250;6.776;2023-03-05T05:51:35;1.95;;;1.00;;
10653;SDS011;5375;51.250;6.776;2023-03-05T05:54:01;2.33;;;1.10;;
10653;SDS011;5375;51.250;6.776;2023-03-05T05:56:27;2.65;;;1.30;;
10653;SDS011;5375;51.250;6.776;2023-03-05T05:58:53;1.58;;;0.90;;
10653;SDS011;5375;51.250;6.776;2023-03-05T06:01:21;4.05;;;1.05;;
10653;SDS011;5375;51.250;6.776;2023-03-05T06:03:52;2.55;;;0.82;;
10653;SDS011;5375;51.250;6.776;2023-03-05T06:06:19;1.60;;;0.90;;
10653;SDS011;5375;51.250;6.776;2023-03-05T06:08:46;2.60;;;1.15;;
10653;SDS011;5375;51.250;6.776;2023-03-05T06:11:12;3.70;;;1.33;;
10653;SDS011;5375;51.250;6.776;2023-03-05T06:13:38;1.95;;;1.02;;
10653;SDS011;5375;51.250;6.776;2023-03-05T06:16:05;2.97;;;1.25;;
10653;SDS011;5375;51.250;6.776;2023-03-05T06:18:34;2.67;;;1.08;;
10653;SDS011;5375;51.250;6.776;2023-03-05T06:21:01;2.45;;;1.20;;
10653;SDS011;5375;51.250;6.776;2023-03-05T06:23:28;2.63;;;1.23;;
10653;SDS011;5375;51.250;6.776;2023-03-05T06:25:57;2.05;;;1.27;;
10653;SDS011;5375;51.250;6.776;2023-03-05T06:28:23;2.38;;;1.20;;
10653;SDS011;5375;51.250;6.776;2023-03-05T06:30:49;2.92;;;1.10;;
10653;SDS011;5375;51.250;6.776;2023-03-05T06:33:15;2.25;;;1.02;;
10653;SDS011;5375;51.250;6.776;2023-03-05T06:35:41;2.47;;;1.10;;
10653;SDS011;5375;51.250;6.776;2023-03-05T06:38:07;1.98;;;1.05;;
10653;SDS011;5375;51.250;6.776;2023-03-05T06:40:33;1.90;;;1.10;;
10653;SDS011;5375;51.250;6.776;2023-03-05T06:42:59;1.58;;;1.10;;
10653;SDS011;5375;51.250;6.776;2023-03-05T06:45:25;1.88;;;0.90;;
10653;SDS011;5375;51.250;6.776;2023-03-05T06:47:51;3.17;;;1.08;;
10653;SDS011;5375;51.250;6.776;2023-03-05T06:50:19;2.58;;;1.00;;
10653;SDS011;5375;51.250;6.776;2023-03-05T06:52:47;2.25;;;1.00;;
10653;SDS011;5375;51.250;6.776;2023-03-05T06:55:13;1.92;;;1.13;;
10653;SDS011;5375;51.250;6.776;2023-03-05T06:57:39;3.35;;;1.23;;
10653;SDS011;5375;51.250;6.776;2023-03-05T07:00:05;2.88;;;1.00;;
10653;SDS011;5375;51.250;6.776;2023-03-05T07:02:36;2.15;;;0.93;;
10653;SDS011;5375;51.250;6.776;2023-03-05T07:05:02;2.88;;;0.85;;
10653;SDS011;5375;51.250;6.776;2023-03-05T07:07:29;1.88;;;1.00;;
10653;SDS011;5375;51.250;6.776;2023-03-05T07:09:54;2.35;;;0.82;;
10653;SDS011;5375;51.250;6.776;2023-03-05T07:12:20;1.38;;;0.90;;
10653;SDS011;5375;51.250;6.776;2023-03-05T07:14:46;2.88;;;1.13;;
10653;SDS011;5375;51.250;6.776;2023-03-05T07:17:12;1.52;;;1.00;;
10653;SDS011;5375;51.250;6.776;2023-03-05T07:19:39;2.45;;;1.00;;
10653;SDS011;5375;51.250;6.776;2023-03-05T07:22:05;1.42;;;0.93;;
10653;SDS011;5375;51.250;6.776;2023-03-05T07:24:32;2.53;;;0.82;;
10653;SDS011;5375;51.250;6.776;2023-03-05T07:26:57;2.28;;;1.00;;
10653;SDS011;5375;51.250;6.776;2023-03-05T07:29:24;2.97;;;1.00;;
10653;SDS011;5375;51.250;6.776;2023-03-05T07:31:51;1.50;;;0.80;;
10653;SDS011;5375;51.250;6.776;2023-03-05T07:34:17;2.05;;;1.02;;
10653;SDS011;5375;51.250;6.776;2023-03-05T07:36:43;1.65;;;1.00;;
10653;SDS011;5375;51.250;6.776;2023-03-05T07:39:09;2.28;;;1.13;;
10653;SDS011;5375;51.250;6.776;2023-03-05T07:41:36;2.13;;;0.90;;
10653;SDS011;5375;51.250;6.776;2023-03-05T07:44:02;1.80;;;1.13;;
10653;SDS011;5375;51.250;6.776;2023-03-05T07:46:29;1.23;;;0.93;;
10653;SDS011;5375;51.250;6.776;2023-03-05T07:48:56;3.28;;;1.00;;
10653;SDS011;5375;51.250;6.776;2023-03-05T07:51:23;3.17;;;1.20;;
10653;SDS011;5375;51.250;6.776;2023-03-05T07:53:50;1.52;;;0.85;;
10653;SDS011;5375;51.250;6.776;2023-03-05T07:58:50;3.25;;;1.00;;
10653;SDS011;5375;51.250;6.776;2023-03-05T08:01:16;2.60;;;0.93;;
10653;SDS011;5375;51.250;6.776;2023-03-05T08:03:42;2.50;;;0.90;;
10653;SDS011;5375;51.250;6.776;2023-03-05T08:06:09;2.22;;;1.02;;
10653;SDS011;5375;51.250;6.776;2023-03-05T08:08:35;2.05;;;1.10;;
10653;SDS011;5375;51.250;6.776;2023-03-05T08:11:02;1.65;;;0.90;;
10653;SDS011;5375;51.250;6.776;2023-03-05T08:13:29;1.95;;;1.08;;
10653;SDS011;5375;51.250;6.776;2023-03-05T08:15:55;1.35;;;0.90;;
10653;SDS011;5375;51.250;6.776;2023-03-05T08:18:20;2.65;;;0.90;;
10653;SDS011;5375;51.250;6.776;2023-03-05T08:20:46;2.60;;;1.00;;
10653;SDS011;5375;51.250;6.776;2023-03-05T08:23:12;1.95;;;0.95;;
10653;SDS011;5375;51.250;6.776;2023-03-05T08:25:37;2.17;;;1.10;;
10653;SDS011;5375;51.250;6.776;2023-03-05T08:28:03;3.65;;;1.10;;
10653;SDS011;5375;51.250;6.776;2023-03-05T08:30:29;2.42;;;0.90;;
10653;SDS011;5375;51.250;6.776;2023-03-05T08:32:55;1.95;;;1.13;;
10653;SDS011;5375;51.250;6.776;2023-03-05T08:35:21;2.22;;;1.08;;
10653;SDS011;5375;51.250;6.776;2023-03-05T08:37:47;3.75;;;1.10;;
10653;SDS011;5375;51.250;6.776;2023-03-05T08:40:13;1.95;;;1.00;;
10653;SDS011;5375;51.250;6.776;2023-03-05T08:42:41;2.05;;;1.10;;
10653;SDS011;5375;51.250;6.776;2023-03-05T08:45:08;2.10;;;1.00;;
10653;SDS011;5375;51.250;6.776;2023-03-05T08:47:34;2.13;;;0.90;;
10653;SDS011;5375;51.250;6.776;2023-03-05T08:50:00;2.58;;;1.10;;
10653;SDS011;5375;51.250;6.776;2023-03-05T08:52:25;3.38;;;1.05;;
10653;SDS011;5375;51.250;6.776;2023-03-05T08:54:51;1.98;;;1.10;;
10653;SDS011;5375;51.250;6.776;2023-03-05T08:57:17;2.20;;;1.00;;
10653;SDS011;5375;51.250;6.776;2023-03-05T08:59:43;2.20;;;1.10;;
10653;SDS011;5375;51.250;6.776;2023-03-05T09:02:09;2.47;;;1.10;;
10653;SDS011;5375;51.250;6.776;2023-03-05T09:04:38;3.60;;;1.17;;
10653;SDS011;5375;51.250;6.776;2023-03-05T09:07:04;2.10;;;1.00;;
10653;SDS011;5375;51.250;6.776;2023-03-05T09:09:30;1.92;;;1.08;;
10653;SDS011;5375;51.250;6.776;2023-03-05T09:12:00;2.13;;;1.00;;
10653;SDS011;5375;51.250;6.776;2023-03-05T09:14:26;1.92;;;0.95;;
10653;SDS011;5375;51.250;6.776;2023-03-05T09:16:53;1.98;;;1.13;;
10653;SDS011;5375;51.250;6.776;2023-03-05T09:19:19;1.45;;;0.90;;
10653;SDS011;5375;51.250;6.776;2023-03-05T09:21:44;1.58;;;0.93;;
10653;SDS011;5375;51.250;6.776;2023-03-05T09:24:10;2.33;;;1.30;;
10653;SDS011;5375;51.250;6.776;2023-03-05T09:26:36;2.63;;;1.00;;
10653;SDS011;5375;51.250;6.776;2023-03-05T09:29:03;2.45;;;0.90;;
10653;SDS011;5375;51.250;6.776;2023-03-05T09:31:30;2.05;;;1.00;;
10653;SDS011;5375;51.250;6.776;2023-03-05T09:33:56;3.35;;;0.93;;
10653;SDS011;5375;51.250;6.776;2023-03-05T09:36:23;2.00;;;0.90;;
10653;SDS011;5375;51.250;6.776;2023-03-05T09:38:51;2.88;;;1.10;;
10653;SDS011;5375;51.250;6.776;2023-03-05T09:41:23;1.83;;;0.98;;
10653;SDS011;5375;51.250;6.776;2023-03-05T09:51:53;2.83;;;1.17;;
10653;SDS011;5375;51.250;6.776;2023-03-05T09:54:31;3.50;;;1.40;;
10653;SDS011;5375;51.250;6.776;2023-03-05T09:57:04;4.32;;;1.50;;
10653;SDS011;5375;51.250;6.776;2023-03-05T09:59:48;5.50;;;1.15;;
10653;SDS011;5375;51.250;6.776;2023-03-05T10:04:51;3.92;;;1.20;;
10653;SDS011;5375;51.250;6.776;2023-03-05T10:07:29;3.05;;;1.33;;
10653;SDS011;5375;51.250;6.776;2023-03-05T10:10:01;3.72;;;1.33;;
10653;SDS011;5375;51.250;6.776;2023-03-05T10:15:13;4.45;;;1.35;;
10653;SDS011;5375;51.250;6.776;2023-03-05T10:17:48;5.18;;;1.38;;
10653;SDS011;5375;51.250;6.776;2023-03-05T10:25:22;6.50;;;1.45;;
10653;SDS011;5375;51.250;6.776;2023-03-05T10:28:08;3.25;;;1.20;;
10653;SDS011;5375;51.250;6.776;2023-03-05T10:30:51;3.70;;;1.27;;
10653;SDS011;5375;51.250;6.776;2023-03-05T10:33:58;2.35;;;1.48;;
10653;SDS011;5375;51.250;6.776;2023-03-05T10:36:46;2.78;;;1.23;;
10653;SDS011;5375;51.250;6.776;2023-03-05T10:42:26;6.20;;;1.50;;
10653;SDS011;5375;51.250;6.776;2023-03-05T10:45:08;1.98;;;0.88;;
10653;SDS011;5375;51.250;6.776;2023-03-05T10:47:50;3.60;;;1.10;;
10653;SDS011;5375;51.250;6.776;2023-03-05T10:52:51;2.63;;;1.35;;
10653;SDS011;5375;51.250;6.776;2023-03-05T10:55:39;7.60;;;1.23;;
10653;SDS011;5375;51.250;6.776;2023-03-05T10:58:12;3.90;;;1.30;;
10653;SDS011;5375;51.250;6.776;2023-03-05T11:00:40;6.03;;;1.70;;
10653;SDS011;5375;51.250;6.776;2023-03-05T11:03:32;3.03;;;1.20;;
10653;SDS011;5375;51.250;6.776;2023-03-05T11:06:12;4.35;;;1.48;;
10653;SDS011;5375;51.250;6.776;2023-03-05T11:08:38;2.25;;;1.20;;
10653;SDS011;5375;51.250;6.776;2023-03-05T11:13:35;5.07;;;1.52;;
10653;SDS011;5375;51.250;6.776;2023-03-05T11:16:06;4.45;;;1.50;;
10653;SDS011;5375;51.250;6.776;2023-03-05T11:18:46;4.50;;;1.75;;
10653;SDS011;5375;51.250;6.776;2023-03-05T11:21:20;2.10;;;1.02;;
10653;SDS011;5375;51.250;6.776;2023-03-05T11:26:47;1.83;;;1.02;;
10653;SDS011;5375;51.250;6.776;2023-03-05T11:29:20;3.78;;;1.33;;
10653;SDS011;5375;51.250;6.776;2023-03-05T11:31:54;3.42;;;1.30;;
10653;SDS011;5375;51.250;6.776;2023-03-05T11:37:00;3.35;;;1.38;;
10653;SDS011;5375;51.250;6.776;2023-03-05T11:39:27;9.50;;;2.00;;
10653;SDS011;5375;51.250;6.776;2023-03-05T11:42:02;2.50;;;1.38;;
10653;SDS011;5375;51.250;6.776;2023-03-05T11:44:44;3.90;;;1.58;;
10653;SDS011;5375;51.250;6.776;2023-03-05T11:49:52;4.00;;;1.52;;
10653;SDS011;5375;51.250;6.776;2023-03-05T11:52:28;3.95;;;1.70;;
10653;SDS011;5375;51.250;6.776;2023-03-05T11:57:30;4.13;;;1.50;;
10653;SDS011;5375;51.250;6.776;2023-03-05T12:00:03;5.78;;;1.50;;
10653;SDS011;5375;51.250;6.776;2023-03-05T12:02:37;3.97;;;1.45;;
10653;SDS011;5375;51.250;6.776;2023-03-05T12:05:04;3.20;;;1.77;;
10653;SDS011;5375;51.250;6.776;2023-03-05T12:07:33;4.60;;;1.38;;
10653;SDS011;5375;51.250;6.776;2023-03-05T12:10:01;4.03;;;1.70;;
10653;SDS011;5375;51.250;6.776;2023-03-05T12:12:36;5.53;;;1.70;;
10653;SDS011;5375;51.250;6.776;2023-03-05T12:15:30;4.35;;;1.60;;
10653;SDS011;5375;51.250;6.776;2023-03-05T12:18:15;6.25;;;1.80;;
10653;SDS011;5375;51.250;6.776;2023-03-05T12:21:07;3.40;;;1.70;;
10653;SDS011;5375;51.250;6.776;2023-03-05T12:23:59;4.40;;;1.83;;
10653;SDS011;5375;51.250;6.776;2023-03-05T12:32:04;4.82;;;2.00;;
10653;SDS011;5375;51.250;6.776;2023-03-05T12:40:19;5.40;;;1.92;;
10653;SDS011;5375;51.250;6.776;2023-03-05T12:43:02;5.40;;;1.90;;
10653;SDS011;5375;51.250;6.776;2023-03-05T12:45:37;3.65;;;1.60;;
10653;SDS011;5375;51.250;6.776;2023-03-05T12:55:29;3.42;;;1.60;;
10653;SDS011;5375;51.250;6.776;2023-03-05T12:58:02;3.92;;;1.80;;
10653;SDS011;5375;51.250;6.776;2023-03-05T13:03:33;4.40;;;1.85;;
10653;SDS011;5375;51.250;6.776;2023-03-05T13:06:02;3.35;;;1.73;;
10653;SDS011;5375;51.250;6.776;2023-03-05T13:08:31;2.97;;;1.50;;
10653;SDS011;5375;51.250;6.776;2023-03-05T13:11:03;5.03;;;1.63;;
10653;SDS011;5375;51.250;6.776;2023-03-05T13:13:37;4.93;;;1.55;;
10653;SDS011;5375;51.250;6.776;2023-03-05T13:16:17;4.45;;;1.80;;
10653;SDS011;5375;51.250;6.776;2023-03-05T13:18:47;3.63;;;1.60;;
10653;SDS011;5375;51.250;6.776;2023-03-05T13:21:16;5.07;;;1.48;;
10653;SDS011;5375;51.250;6.776;2023-03-05T13:23:49;3.33;;;1.42;;
10653;SDS011;5375;51.250;6.776;2023-03-05T13:26:23;3.38;;;1.40;;
10653;SDS011;5375;51.250;6.776;2023-03-05T13:29:11;3.67;;;1.35;;
10653;SDS011;5375;51.250;6.776;2023-03-05T13:31:42;2.72;;;1.55;;
10653;SDS011;5375;51.250;6.776;2023-03-05T13:34:17;2.90;;;1.20;;
10653;SDS011;5375;51.250;6.776;2023-03-05T13:36:51;2.58;;;1.65;;
10653;SDS011;5375;51.250;6.776;2023-03-05T13:39:26;3.88;;;1.50;;
10653;SDS011;5375;51.250;6.776;2023-03-05T13:42:04;5.53;;;1.98;;
10653;SDS011;5375;51.250;6.776;2023-03-05T13:44:39;3.80;;;1.60;;
10653;SDS011;5375;51.250;6.776;2023-03-05T13:47:13;3.40;;;1.20;;
10653;SDS011;5375;51.250;6.776;2023-03-05T13:49:41;4.65;;;1.27;;
10653;SDS011;5375;51.250;6.776;2023-03-05T13:52:08;2.92;;;1.38;;
10653;SDS011;5375;51.250;6.776;2023-03-05T13:54:34;3.13;;;1.37;;
10653;SDS011;5375;51.250;6.776;2023-03-05T13:57:05;2.33;;;1.30;;
10653;SDS011;5375;51.250;6.776;2023-03-05T13:59:33;2.47;;;1.20;;
10653;SDS011;5375;51.250;6.776;2023-03-05T14:02:03;3.70;;;1.58;;
10653;SDS011;5375;51.250;6.776;2023-03-05T14:04:44;2.10;;;1.30;;
10653;SDS011;5375;51.250;6.776;2023-03-05T14:12:51;3.08;;;1.42;;
10653;SDS011;5375;51.250;6.776;2023-03-05T14:15:24;3.42;;;1.40;;
10653;SDS011;5375;51.250;6.776;2023-03-05T14:17:52;2.45;;;1.30;;
10653;SDS011;5375;51.250;6.776;2023-03-05T14:20:59;2.50;;;1.10;;
10653;SDS011;5375;51.250;6.776;2023-03-05T14:28:54;2.70;;;1.48;;
10653;SDS011;5375;51.250;6.776;2023-03-05T14:31:20;2.25;;;1.08;;
10653;SDS011;5375;51.250;6.776;2023-03-05T14:33:48;3.40;;;1.40;;
10653;SDS011;5375;51.250;6.776;2023-03-05T14:36:19;3.05;;;1.10;;
10653;SDS011;5375;51.250;6.776;2023-03-05T14:38:47;3.90;;;1.20;;
10653;SDS011;5375;51.250;6.776;2023-03-05T14:41:17;2.15;;;1.20;;
10653;SDS011;5375;51.250;6.776;2023-03-05T14:43:56;3.10;;;1.40;;
10653;SDS011;5375;51.250;6.776;2023-03-05T14:46:22;2.22;;;1.02;;
10653;SDS011;5375;51.250;6.776;2023-03-05T14:48:48;2.65;;;1.33;;
10653;SDS011;5375;51.250;6.776;2023-03-05T14:51:13;2.05;;;1.10;;
10653;SDS011;5375;51.250;6.776;2023-03-05T14:53:41;2.42;;;1.20;;
10653;SDS011;5375;51.250;6.776;2023-03-05T14:56:17;1.95;;;0.88;;
10653;SDS011;5375;51.250;6.776;2023-03-05T14:58:51;2.63;;;1.10;;
10653;SDS011;5375;51.250;6.776;2023-03-05T15:01:17;3.05;;;1.40;;
10653;SDS011;5375;51.250;6.776;2023-03-05T15:03:45;1.80;;;1.02;;
10653;SDS011;5375;51.250;6.776;2023-03-05T15:06:23;2.13;;;1.35;;
10653;SDS011;5375;51.250;6.776;2023-03-05T15:08:59;2.13;;;1.00;;
10653;SDS011;5375;51.250;6.776;2023-03-05T15:11:25;1.60;;;0.90;;
10653;SDS011;5375;51.250;6.776;2023-03-05T15:13:50;2.55;;;1.00;;
10653;SDS011;5375;51.250;6.776;2023-03-05T15:16:16;2.53;;;1.20;;
10653;SDS011;5375;51.250;6.776;2023-03-05T15:18:43;2.40;;;1.20;;
10653;SDS011;5375;51.250;6.776;2023-03-05T15:21:09;2.10;;;1.10;;
10653;SDS011;5375;51.250;6.776;2023-03-05T15:23:34;1.15;;;0.90;;
10653;SDS011;5375;51.250;6.776;2023-03-05T15:26:03;1.35;;;0.90;;
10653;SDS011;5375;51.250;6.776;2023-03-05T15:28:32;1.60;;;0.95;;
10653;SDS011;5375;51.250;6.776;2023-03-05T15:31:00;2.53;;;1.10;;
10653;SDS011;5375;51.250;6.776;2023-03-05T15:33:26;2.63;;;1.20;;
10653;SDS011;5375;51.250;6.776;2023-03-05T15:35:52;1.98;;;0.98;;
10653;SDS011;5375;51.250;6.776;2023-03-05T15:38:18;1.55;;;0.98;;
10653;SDS011;5375;51.250;6.776;2023-03-05T15:40:44;2.67;;;1.05;;
10653;SDS011;5375;51.250;6.776;2023-03-05T15:43:11;1.95;;;1.23;;
10653;SDS011;5375;51.250;6.776;2023-03-05T15:45:37;2.28;;;1.10;;
10653;SDS011;5375;51.250;6.776;2023-03-05T15:48:03;1.70;;;0.93;;
10653;SDS011;5375;51.250;6.776;2023-03-05T15:50:28;1.63;;;1.10;;
10653;SDS011;5375;51.250;6.776;2023-03-05T15:52:54;2.22;;;1.20;;
10653;SDS011;5375;51.250;6.776;2023-03-05T15:55:20;1.63;;;0.90;;
10653;SDS011;5375;51.250;6.776;2023-03-05T15:57:47;1.52;;;0.90;;
10653;SDS011;5375;51.250;6.776;2023-03-05T16:00:15;1.92;;;0.95;;
10653;SDS011;5375;51.250;6.776;2023-03-05T16:02:48;2.15;;;1.13;;
10653;SDS011;5375;51.250;6.776;2023-03-05T16:05:14;2.70;;;1.08;;
10653;SDS011;5375;51.250;6.776;2023-03-05T16:07:41;4.18;;;1.10;;
10653;SDS011;5375;51.250;6.776;2023-03-05T16:10:13;1.40;;;0.80;;
10653;SDS011;5375;51.250;6.776;2023-03-05T16:12:42;1.60;;;0.90;;
10653;SDS011;5375;51.250;6.776;2023-03-05T16:15:13;2.28;;;0.95;;
10653;SDS011;5375;51.250;6.776;2023-03-05T16:17:45;1.15;;;0.80;;
10653;SDS011;5375;51.250;6.776;2023-03-05T16:20:13;1.75;;;1.10;;
10653;SDS011;5375;51.250;6.776;2023-03-05T16:22:39;1.42;;;0.93;;
10653;SDS011;5375;51.250;6.776;2023-03-05T16:25:05;2.47;;;1.23;;
10653;SDS011;5375;51.250;6.776;2023-03-05T16:27:31;1.42;;;0.80;;